HST,Max TemperatureF,Mean TemperatureF,Min TemperatureF,Max Dew PointF,MeanDew PointF,Min DewpointF,Max Humidity, Mean Humidity, Min Humidity, Max Sea Level PressureIn, Mean Sea Level PressureIn, Min Sea Level PressureIn, Max VisibilityMiles, Mean VisibilityMiles, Min VisibilityMiles, Max Wind SpeedMPH, Mean Wind SpeedMPH, Max Gust SpeedMPH,PrecipitationIn, CloudCover, Events, WindDirDegrees
2012-8-1,87,82,75,72,70,63,82,70,45,30.05,30.01,29.98,10,10,7,20,7,,0.00,6,Rain,240
2012-8-2,84,78,73,70,68,64,79,68,61,30.04,30.00,29.98,10,10,10,14,8,,0.00,4,Rain,175
2012-8-3,84,80,75,70,68,67,79,68,58,30.05,30.02,29.98,10,10,10,10,7,,0.00,4,,176
2012-8-4,84,80,77,69,67,65,74,64,56,30.04,30.01,29.97,10,10,10,14,7,,0.00,6,,161
2012-8-5,84,80,75,71,68,63,77,66,57,30.04,30.01,29.97,10,10,10,14,6,,0.01,3,Rain,208
2012-8-6,84,78,73,71,68,61,88,71,57,30.04,30.00,29.96,10,10,5,14,7,,0.17,5,Rain,232
2012-8-7,84,78,72,68,66,63,79,66,56,30.03,30.00,29.96,10,10,10,14,6,,0.00,4,,191
2012-8-8,84,78,72,68,66,63,73,65,58,30.07,30.02,29.97,10,10,10,12,7,,0.00,4,,155
2012-8-9,84,78,73,70,67,63,76,65,59,30.09,30.05,29.99,10,10,10,14,5,,0.00,2,,185
2012-8-10,84,80,75,68,65,57,74,60,43,30.05,30.01,29.95,10,10,10,17,7,23,0.00,4,,134
2012-8-11,84,80,75,70,64,59,79,59,48,30.01,29.97,29.92,10,10,10,14,8,,0.00,4,Rain,274
2012-8-12,84,80,75,69,67,63,76,65,56,30.02,29.97,29.91,10,10,10,12,7,,0.00,4,,185
2012-8-13,86,80,75,70,67,64,74,65,55,30.03,29.99,29.94,10,10,10,23,8,26,0.00,6,Rain,162
2012-8-14,84,78,73,68,64,59,73,59,46,30.01,29.97,29.91,10,10,10,23,9,29,0.00,3,,107
2012-8-15,86,80,75,68,66,61,67,61,53,29.99,29.95,29.92,10,10,10,15,8,,0.00,4,Rain,185
2012-8-16,84,78,73,69,65,60,69,61,50,30.02,29.98,29.95,10,10,10,16,6,,0.00,2,,143
2012-8-17,86,80,73,68,65,61,74,62,49,30.02,29.99,29.96,10,10,10,13,6,,0.00,3,,170
2012-8-18,84,78,72,67,63,59,71,60,43,30.00,29.97,29.91,10,10,10,15,5,,0.00,4,Rain,146
2012-8-19,84,78,72,68,65,58,71,61,47,29.99,29.95,29.92,10,10,10,12,6,,0.00,3,,175
2012-8-20,87,82,75,70,67,64,79,66,51,30.02,29.99,29.96,10,10,5,16,7,,0.01,5,Rain,59
2012-8-21,84,80,75,70,67,61,74,66,54,30.06,30.02,29.99,10,10,10,17,7,,0.00,4,,136
2012-8-22,84,80,75,70,64,57,68,59,48,30.07,30.03,30.00,10,10,10,14,9,,0.00,1,,224
2012-8-23,84,78,73,69,67,63,72,66,57,30.06,30.02,29.98,10,10,10,13,5,,0.00,2,,214
2012-8-24,84,80,75,70,69,65,84,68,58,30.06,30.03,29.99,10,10,10,14,5,,0.00,3,,184
2012-8-25,84,78,73,69,63,57,76,57,42,30.06,30.02,29.97,10,10,10,24,9,31,0.00,1,,122
2012-8-26,84,80,73,69,63,58,72,59,51,30.04,30.00,29.97,10,10,10,14,6,,0.00,5,Rain,215
2012-8-27,84,78,71,68,64,60,76,61,50,30.04,29.98,29.93,10,10,10,17,8,26,0.01,3,,164
2012-8-28,84,78,71,66,64,61,75,61,47,30.01,29.98,29.94,10,10,10,13,6,,0.00,3,,125
2012-8-29,84,78,72,70,68,64,87,68,58,30.02,29.98,29.94,10,10,10,14,6,,0.18,6,Rain,195
2012-8-30,84,80,75,70,65,61,72,62,55,30.02,29.98,29.95,10,10,10,12,6,,0.01,2,Rain,295
2012-8-31,82,78,73,68,64,60,71,61,52,30.05,30.01,29.97,10,10,10,9,5,,0.00,3,,213